sensor_id;sensor_type;location;lat;lon;timestamp;pressure;altitude;pressure_sealevel;temperature;humidity
10992;BME280;5549;47.028;15.514;2023-08-31T00:00:32;96044.16;;;17.11;91.39
10992;BME280;5549;47.028;15.514;2023-08-31T00:03:00;96041.81;;;17.16;90.76
10992;BME280;5549;47.028;15.514;2023-08-31T00:05:27;96049.94;;;17.14;90.54
10992;BME280;5549;47.028;15.514;2023-08-31T00:07:56;96045.00;;;17.11;91.06
10992;BME280;5549;47.028;15.514;2023-08-31T00:10:26;96040.16;;;17.15;90.68
10992;BME280;5549;47.028;15.514;2023-08-31T00:12:55;96043.34;;;17.10;90.96
10992;BME280;5549;47.028;15.514;2023-08-31T00:15:25;96038.88;;;17.11;90.91
10992;BME280;5549;47.028;15.514;2023-08-31T00:17:56;96042.16;;;17.13;90.73
10992;BME280;5549;47.028;15.514;2023-08-31T00:20:24;96034.19;;;17.13;90.77
10992;BME280;5549;47.028;15.514;2023-08-31T00:22:55;96031.09;;;17.09;90.93
10992;BME280;5549;47.028;15.514;2023-08-31T00:25:24;96028.25;;;17.11;90.83
10992;BME280;5549;47.028;15.514;2023-08-31T00:27:54;96030.72;;;17.12;90.56
10992;BME280;5549;47.028;15.514;2023-08-31T00:30:22;96030.72;;;17.12;90.65
10992;BME280;5549;47.028;15.514;2023-08-31T00:32:52;96031.91;;;17.10;90.81
10992;BME280;5549;47.028;15.514;2023-08-31T00:35:23;96031.91;;;17.10;90.63
10992;BME280;5549;47.028;15.514;2023-08-31T00:37:53;96037.22;;;17.10;90.97
10992;BME280;5549;47.028;15.514;2023-08-31T00:40:23;96034.38;;;17.11;90.91
10992;BME280;5549;47.028;15.514;2023-08-31T00:42:50;96028.72;;;17.14;90.73
10992;BME280;5549;47.028;15.514;2023-08-31T00:45:21;96031.56;;;17.13;90.32
10992;BME280;5549;47.028;15.514;2023-08-31T00:47:51;96031.91;;;17.10;90.49
10992;BME280;5549;47.028;15.514;2023-08-31T00:50:22;96041.81;;;17.16;90.34
10992;BME280;5549;47.028;15.514;2023-08-31T00:52:49;96049.13;;;17.14;89.96
10992;BME280;5549;47.028;15.514;2023-08-31T00:55:18;96043.44;;;17.17;89.62
10992;BME280;5549;47.028;15.514;2023-08-31T00:57:46;96043.44;;;17.17;90.06
10992;BME280;5549;47.028;15.514;2023-08-31T01:00:16;96044.63;;;17.14;90.01
10992;BME280;5549;47.028;15.514;2023-08-31T01:02:54;96042.16;;;17.13;89.71
10992;BME280;5549;47.028;15.514;2023-08-31T01:05:38;96041.81;;;17.16;89.32
10992;BME280;5549;47.028;15.514;2023-08-31T01:08:23;96039.78;;;17.18;89.35
10992;BME280;5549;47.028;15.514;2023-08-31T01:11:08;96041.44;;;17.19;88.94
10992;BME280;5549;47.028;15.514;2023-08-31T01:13:52;96048.38;;;17.20;88.69
10992;BME280;5549;47.028;15.514;2023-08-31T01:16:25;96045.56;;;17.21;88.64
10992;BME280;5549;47.028;15.514;2023-08-31T01:18:54;96053.50;;;17.21;88.92
10992;BME280;5549;47.028;15.514;2023-08-31T01:21:27;96058.63;;;17.23;88.69
10992;BME280;5549;47.028;15.514;2023-08-31T01:23:59;96053.31;;;17.23;88.57
10992;BME280;5549;47.028;15.514;2023-08-31T01:26:27;96053.50;;;17.07;88.87
10992;BME280;5549;47.028;15.514;2023-08-31T01:28:55;96059.72;;;17.14;88.60
10992;BME280;5549;47.028;15.514;2023-08-31T01:31:23;96054.50;;;17.06;88.66
10992;BME280;5549;47.028;15.514;2023-08-31T01:33:54;96056.78;;;16.94;89.40
10992;BME280;5549;47.028;15.514;2023-08-31T01:36:27;96055.56;;;16.82;89.21
10992;BME280;5549;47.028;15.514;2023-08-31T01:39:03;96059.13;;;16.74;88.86
10992;BME280;5549;47.028;15.514;2023-08-31T01:41:35;96066.31;;;16.65;89.38
10992;BME280;5549;47.028;15.514;2023-08-31T01:44:05;96063.88;;;16.79;88.45
10992;BME280;5549;47.028;15.514;2023-08-31T01:46:37;96059.69;;;16.84;88.21
10992;BME280;5549;47.028;15.514;2023-08-31T01:49:07;96062.41;;;16.76;88.26
10992;BME280;5549;47.028;15.514;2023-08-31T01:51:38;96062.59;;;16.75;88.24
10992;BME280;5549;47.028;15.514;2023-08-31T01:54:09;96064.13;;;16.69;87.89
10992;BME280;5549;47.028;15.514;2023-08-31T01:56:37;96068.06;;;16.73;87.67
10992;BME280;5549;47.028;15.514;2023-08-31T01:59:06;96066.88;;;16.76;87.10
10992;BME280;5549;47.028;15.514;2023-08-31T02:01:36;96067.06;;;16.74;86.65
10992;BME280;5549;47.028;15.514;2023-08-31T02:04:05;96067.06;;;16.74;86.82
10992;BME280;5549;47.028;15.514;2023-08-31T02:06:34;96068.06;;;16.73;86.55
10992;BME280;5549;47.028;15.514;2023-08-31T02:09:04;96067.25;;;16.73;86.05
10992;BME280;5549;47.028;15.514;2023-08-31T02:11:34;96069.13;;;16.64;85.70
10992;BME280;5549;47.028;15.514;2023-08-31T02:14:04;96071.09;;;16.70;86.20
10992;BME280;5549;47.028;15.514;2023-08-31T02:16:32;96066.44;;;16.72;86.22
10992;BME280;5549;47.028;15.514;2023-08-31T02:18:59;96067.06;;;16.74;86.14
10992;BME280;5549;47.028;15.514;2023-08-31T02:21:30;96070.72;;;16.73;85.95
10992;BME280;5549;47.028;15.514;2023-08-31T02:23:58;96075.38;;;16.71;85.96
10992;BME280;5549;47.028;15.514;2023-08-31T02:26:27;96078.38;;;16.68;85.78
10992;BME280;5549;47.028;15.514;2023-08-31T02:28:58;96077.75;;;16.66;85.94
10992;BME280;5549;47.028;15.514;2023-08-31T02:31:27;96075.56;;;16.70;85.90
10992;BME280;5549;47.028;15.514;2023-08-31T02:33:57;96084.34;;;16.70;85.54
10992;BME280;5549;47.028;15.514;2023-08-31T02:36:25;96085.16;;;16.71;85.84
10992;BME280;5549;47.028;15.514;2023-08-31T02:38:52;96083.97;;;16.73;85.46
10992;BME280;5549;47.028;15.514;2023-08-31T02:41:20;96087.81;;;16.71;85.74
10992;BME280;5549;47.028;15.514;2023-08-31T02:43:50;96092.28;;;16.70;85.72
10992;BME280;5549;47.028;15.514;2023-08-31T02:46:22;96088.00;;;16.69;85.33
10992;BME280;5549;47.028;15.514;2023-08-31T02:48:52;96093.28;;;16.69;85.47
10992;BME280;5549;47.028;15.514;2023-08-31T02:51:19;96098.59;;;16.69;85.33
10992;BME280;5549;47.028;15.514;2023-08-31T02:53:49;96097.31;;;16.65;85.56
10992;BME280;5549;47.028;15.514;2023-08-31T02:56:19;96094.66;;;16.65;85.69
10992;BME280;5549;47.028;15.514;2023-08-31T02:58:48;96089.19;;;16.66;85.51
10992;BME280;5549;47.028;15.514;2023-08-31T03:01:16;96099.28;;;16.63;85.60
10992;BME280;5549;47.028;15.514;2023-08-31T03:03:46;96097.97;;;16.59;85.71
10992;BME280;5549;47.028;15.514;2023-08-31T03:06:13;96096.22;;;16.51;86.31
10992;BME280;5549;47.028;15.514;2023-08-31T03:08:43;96099.75;;;16.44;86.08
10992;BME280;5549;47.028;15.514;2023-08-31T03:11:11;96099.16;;;16.33;87.07
10992;BME280;5549;47.028;15.514;2023-08-31T03:13:45;96098.50;;;16.31;86.64
10992;BME280;5549;47.028;15.514;2023-08-31T03:16:14;96103.41;;;16.43;86.20
10992;BME280;5549;47.028;15.514;2023-08-31T03:18:42;96100.41;;;16.46;86.06
10992;BME280;5549;47.028;15.514;2023-08-31T03:21:11;96105.41;;;16.41;85.98
10992;BME280;5549;47.028;15.514;2023-08-31T03:23:40;96102.41;;;16.44;86.04
10992;BME280;5549;47.028;15.514;2023-08-31T03:26:10;96097.75;;;16.46;85.64
10992;BME280;5549;47.028;15.514;2023-08-31T03:28:40;96102.03;;;16.47;85.70
10992;BME280;5549;47.028;15.514;2023-08-31T03:31:07;96100.22;;;16.47;85.66
10992;BME280;5549;47.028;15.514;2023-08-31T03:33:35;96106.34;;;16.48;85.18
10992;BME280;5549;47.028;15.514;2023-08-31T03:36:05;96113.88;;;16.36;86.11
10992;BME280;5549;47.028;15.514;2023-08-31T03:38:36;96113.06;;;16.35;86.12
10992;BME280;5549;47.028;15.514;2023-08-31T03:41:04;96121.66;;;16.38;85.94
10992;BME280;5549;47.028;15.514;2023-08-31T03:43:32;96114.72;;;16.36;85.81
10992;BME280;5549;47.028;15.514;2023-08-31T03:46:00;96128.97;;;16.35;85.86
10992;BME280;5549;47.028;15.514;2023-08-31T03:48:30;96126.13;;;16.37;85.47
10992;BME280;5549;47.028;15.514;2023-08-31T03:50:58;96127.59;;;16.40;85.04
10992;BME280;5549;47.028;15.514;2023-08-31T03:53:25;96129.59;;;16.38;84.79
10992;BME280;5549;47.028;15.514;2023-08-31T03:55:54;96120.00;;;16.36;85.24
10992;BME280;5549;47.028;15.514;2023-08-31T03:58:22;96129.59;;;16.38;85.22
10992;BME280;5549;47.028;15.514;2023-08-31T04:00:49;96132.91;;;16.40;85.07
10992;BME280;5549;47.028;15.514;2023-08-31T04:03:20;96129.44;;;16.39;84.78
10992;BME280;5549;47.028;15.514;2023-08-31T04:05:54;96127.13;;;16.36;85.01
10992;BME280;5549;47.028;15.514;2023-08-31T04:08:24;96128.78;;;16.37;84.94
10992;BME280;5549;47.028;15.514;2023-08-31T04:10:55;96137.56;;;16.38;84.95
10992;BME280;5549;47.028;15.514;2023-08-31T04:13:23;96142.69;;;16.39;84.97
10992;BME280;5549;47.028;15.514;2023-08-31T04:15:51;96142.50;;;16.41;84.66
10992;BME280;5549;47.028;15.514;2023-08-31T04:18:21;96144.50;;;16.39;84.91
10992;BME280;5549;47.028;15.514;2023-08-31T04:20:51;96143.50;;;16.40;85.29
10992;BME280;5549;47.028;15.514;2023-08-31T04:23:21;96139.84;;;16.41;84.94
10992;BME280;5549;47.028;15.514;2023-08-31T04:25:48;96139.03;;;16.40;85.17
10992;BME280;5549;47.028;15.514;2023-08-31T04:28:19;96139.22;;;16.39;84.85
10992;BME280;5549;47.028;15.514;2023-08-31T04:30:46;96138.78;;;16.27;85.24
10992;BME280;5549;47.028;15.514;2023-08-31T04:33:18;96141.06;;;16.30;85.40
10992;BME280;5549;47.028;15.514;2023-08-31T04:35:45;96139.25;;;16.30;85.64
10992;BME280;5549;47.028;15.514;2023-08-31T04:38:13;96135.44;;;16.33;85.79
10992;BME280;5549;47.028;15.514;2023-08-31T04:40:40;96139.56;;;16.35;85.95
10992;BME280;5549;47.028;15.514;2023-08-31T04:43:09;96149.97;;;16.37;85.65
10992;BME280;5549;47.028;15.514;2023-08-31T04:45:38;96156.75;;;16.40;85.84
10992;BME280;5549;47.028;15.514;2023-08-31T04:48:08;96158.06;;;16.44;85.77
10992;BME280;5549;47.028;15.514;2023-08-31T04:50:35;96167.66;;;16.45;85.32
10992;BME280;5549;47.028;15.514;2023-08-31T04:53:03;96155.88;;;16.47;85.62
10992;BME280;5549;47.028;15.514;2023-08-31T04:55:34;96159.19;;;16.49;85.23
10992;BME280;5549;47.028;15.514;2023-08-31T04:58:01;96157.34;;;16.50;85.24
10992;BME280;5549;47.028;15.514;2023-08-31T05:00:32;96169.25;;;16.54;85.09
10992;BME280;5549;47.028;15.514;2023-08-31T05:03:04;96169.91;;;16.56;85.06
10992;BME280;5549;47.028;15.514;2023-08-31T05:05:31;96175.88;;;16.58;85.11
10992;BME280;5549;47.028;15.514;2023-08-31T05:07:59;96186.28;;;16.59;85.13
10992;BME280;5549;47.028;15.514;2023-08-31T05:10:26;96179.81;;;16.62;85.09
10992;BME280;5549;47.028;15.514;2023-08-31T05:12:54;96180.00;;;16.60;85.27
10992;BME280;5549;47.028;15.514;2023-08-31T05:15:24;96170.84;;;16.63;85.01
10992;BME280;5549;47.028;15.514;2023-08-31T05:17:55;96183.94;;;16.64;84.79
10992;BME280;5549;47.028;15.514;2023-08-31T05:20:27;96189.91;;;16.66;84.50
10992;BME280;5549;47.028;15.514;2023-08-31T05:22:56;96193.41;;;16.67;84.84
10992;BME280;5549;47.028;15.514;2023-08-31T05:25:24;96204.19;;;16.65;84.76
10992;BME280;5549;47.028;15.514;2023-08-31T05:27:52;96206.97;;;16.64;85.06
10992;BME280;5549;47.028;15.514;2023-08-31T05:30:19;96203.66;;;16.62;84.93
10992;BME280;5549;47.028;15.514;2023-08-31T05:32:50;96208.66;;;16.65;84.93
10992;BME280;5549;47.028;15.514;2023-08-31T05:35:19;96210.44;;;16.64;84.85
10992;BME280;5549;47.028;15.514;2023-08-31T05:37:48;96215.25;;;16.69;84.49
10992;BME280;5549;47.028;15.514;2023-08-31T05:40:16;96205.13;;;16.73;84.75
10992;BME280;5549;47.028;15.514;2023-08-31T05:42:44;96212.91;;;16.74;84.62
10992;BME280;5549;47.028;15.514;2023-08-31T05:45:11;96217.03;;;16.77;84.47
10992;BME280;5549;47.028;15.514;2023-08-31T05:47:41;96213.25;;;16.71;84.16
10992;BME280;5549;47.028;15.514;2023-08-31T05:50:11;96214.91;;;16.72;84.01
10992;BME280;5549;47.028;15.514;2023-08-31T05:52:39;96218.22;;;16.74;83.96
10992;BME280;5549;47.028;15.514;2023-08-31T05:55:11;96221.88;;;16.73;83.83
10992;BME280;5549;47.028;15.514;2023-08-31T05:57:38;96223.16;;;16.77;83.75
10992;BME280;5549;47.028;15.514;2023-08-31T06:00:09;96220.75;;;16.90;84.00
10992;BME280;5549;47.028;15.514;2023-08-31T06:02:37;96217.63;;;17.10;85.48
10992;BME280;5549;47.028;15.514;2023-08-31T06:05:09;96224.28;;;17.28;86.11
10992;BME280;5549;47.028;15.514;2023-08-31T06:07:40;96217.69;;;17.47;85.67
10992;BME280;5549;47.028;15.514;2023-08-31T06:10:11;96227.63;;;17.68;85.58
10992;BME280;5549;47.028;15.514;2023-08-31T06:12:44;96228.09;;;17.86;85.06
10992;BME280;5549;47.028;15.514;2023-08-31T06:15:11;96227.75;;;18.04;84.53
10992;BME280;5549;47.028;15.514;2023-08-31T06:17:41;96232.50;;;18.23;83.86
10992;BME280;5549;47.028;15.514;2023-08-31T06:20:10;96239.28;;;18.41;83.16
10992;BME280;5549;47.028;15.514;2023-08-31T06:22:38;96241.09;;;18.55;82.55
10992;BME280;5549;47.028;15.514;2023-08-31T06:25:06;96237.34;;;18.64;81.47
10992;BME280;5549;47.028;15.514;2023-08-31T06:27:35;96248.31;;;18.76;80.67
10992;BME280;5549;47.028;15.514;2023-08-31T06:30:07;96252.97;;;18.88;80.48
10992;BME280;5549;47.028;15.514;2023-08-31T06:32:37;96248.41;;;18.82;79.61
10992;BME280;5549;47.028;15.514;2023-08-31T06:35:06;96255.06;;;18.93;79.31
10992;BME280;5549;47.028;15.514;2023-08-31T06:37:34;96247.41;;;19.05;78.40
10992;BME280;5549;47.028;15.514;2023-08-31T06:40:02;96253.09;;;19.16;78.13
10992;BME280;5549;47.028;15.514;2023-08-31T06:42:30;96255.94;;;19.36;78.31
10992;BME280;5549;47.028;15.514;2023-08-31T06:44:59;96264.44;;;19.46;77.76
10992;BME280;5549;47.028;15.514;2023-08-31T06:47:26;96261.53;;;19.63;77.75
10992;BME280;5549;47.028;15.514;2023-08-31T06:49:56;96257.16;;;19.83;77.77
10992;BME280;5549;47.028;15.514;2023-08-31T06:52:27;96261.56;;;19.97;77.00
10992;BME280;5549;47.028;15.514;2023-08-31T06:54:57;96256.34;;;19.82;73.42
10992;BME280;5549;47.028;15.514;2023-08-31T06:57:26;96261.91;;;19.60;75.98
10992;BME280;5549;47.028;15.514;2023-08-31T06:59:56;96260.50;;;19.92;75.95
10992;BME280;5549;47.028;15.514;2023-08-31T07:02:26;96265.59;;;19.86;73.93
10992;BME280;5549;47.028;15.514;2023-08-31T07:04:56;96274.41;;;19.87;74.75
10992;BME280;5549;47.028;15.514;2023-08-31T07:07:23;96265.50;;;20.01;74.91
10992;BME280;5549;47.028;15.514;2023-08-31T07:09:51;96276.00;;;20.09;74.04
10992;BME280;5549;47.028;15.514;2023-08-31T07:12:23;96275.91;;;19.96;71.97
10992;BME280;5549;47.028;15.514;2023-08-31T07:14:50;96281.56;;;19.59;75.08
10992;BME280;5549;47.028;15.514;2023-08-31T07:17:21;96267.78;;;19.76;75.56
10992;BME280;5549;47.028;15.514;2023-08-31T07:19:49;96276.94;;;19.95;74.61
10992;BME280;5549;47.028;15.514;2023-08-31T07:22:19;96278.66;;;19.53;76.42
10992;BME280;5549;47.028;15.514;2023-08-31T07:24:49;96271.38;;;19.90;75.72
10992;BME280;5549;47.028;15.514;2023-08-31T07:27:17;96275.09;;;19.68;76.35
10992;BME280;5549;47.028;15.514;2023-08-31T07:29:47;96272.16;;;20.18;73.18
10992;BME280;5549;47.028;15.514;2023-08-31T07:32:17;96270.22;;;20.34;72.89
10992;BME280;5549;47.028;15.514;2023-08-31T07:34:44;96267.16;;;20.37;71.69
10992;BME280;5549;47.028;15.514;2023-08-31T07:37:13;96274.31;;;20.36;72.15
10992;BME280;5549;47.028;15.514;2023-08-31T07:39:43;96281.22;;;20.52;69.36
10992;BME280;5549;47.028;15.514;2023-08-31T07:42:13;96285.56;;;20.60;70.15
10992;BME280;5549;47.028;15.514;2023-08-31T07:44:40;96290.03;;;20.53;71.76
10992;BME280;5549;47.028;15.514;2023-08-31T07:47:12;96281.06;;;20.67;70.23
10992;BME280;5549;47.028;15.514;2023-08-31T07:49:42;96290.88;;;20.94;70.19
10992;BME280;5549;47.028;15.514;2023-08-31T07:52:10;96295.81;;;20.97;66.08
10992;BME280;5549;47.028;15.514;2023-08-31T07:54:41;96298.94;;;21.14;69.23
10992;BME280;5549;47.028;15.514;2023-08-31T07:57:08;96306.13;;;21.13;69.41
10992;BME280;5549;47.028;15.514;2023-08-31T07:59:36;96298.19;;;21.27;71.58
10992;BME280;5549;47.028;15.514;2023-08-31T08:02:07;96297.00;;;21.56;66.58
10992;BME280;5549;47.028;15.514;2023-08-31T08:04:37;96291.66;;;21.75;65.64
10992;BME280;5549;47.028;15.514;2023-08-31T08:07:05;96294.97;;;21.84;65.30
10992;BME280;5549;47.028;15.514;2023-08-31T08:09:32;96301.34;;;21.96;59.05
10992;BME280;5549;47.028;15.514;2023-08-31T08:12:01;96305.44;;;21.99;62.45
10992;BME280;5549;47.028;15.514;2023-08-31T08:14:33;96308.13;;;21.92;64.43
10992;BME280;5549;47.028;15.514;2023-08-31T08:17:03;96319.66;;;22.19;67.01
10992;BME280;5549;47.028;15.514;2023-08-31T08:19:33;96319.59;;;22.52;64.07
10992;BME280;5549;47.028;15.514;2023-08-31T08:22:03;96316.31;;;22.50;64.90
10992;BME280;5549;47.028;15.514;2023-08-31T08:24:31;96324.97;;;22.52;63.46
10992;BME280;5549;47.028;15.514;2023-08-31T08:26:58;96325.59;;;22.61;63.88
10992;BME280;5549;47.028;15.514;2023-08-31T08:29:27;96326.78;;;22.85;63.81
10992;BME280;5549;47.028;15.514;2023-08-31T08:31:57;96334.84;;;22.45;62.33
10992;BME280;5549;47.028;15.514;2023-08-31T08:34:26;96336.06;;;22.62;63.91
10992;BME280;5549;47.028;15.514;2023-08-31T08:36:54;96337.31;;;22.80;60.59
10992;BME280;5549;47.028;15.514;2023-08-31T08:39:21;96337.72;;;22.63;59.80
10992;BME280;5549;47.028;15.514;2023-08-31T08:41:48;96349.66;;;22.67;58.49
10992;BME280;5549;47.028;15.514;2023-08-31T08:44:17;96343.31;;;22.55;59.90
10992;BME280;5549;47.028;15.514;2023-08-31T08:46:49;96348.41;;;22.83;60.48
10992;BME280;5549;47.028;15.514;2023-08-31T08:49:17;96347.34;;;22.91;61.18
10992;BME280;5549;47.028;15.514;2023-08-31T08:51:46;96350.88;;;22.85;60.78
10992;BME280;5549;47.028;15.514;2023-08-31T08:54:16;96353.16;;;22.81;60.14
10992;BME280;5549;47.028;15.514;2023-08-31T08:56:46;96348.00;;;22.66;59.72
10992;BME280;5549;47.028;15.514;2023-08-31T08:59:16;96350.25;;;22.83;60.85
10992;BME280;5549;47.028;15.514;2023-08-31T09:01:45;96356.00;;;22.93;59.17
10992;BME280;5549;47.028;15.514;2023-08-31T09:04:14;96357.81;;;23.06;60.65
10992;BME280;5549;47.028;15.514;2023-08-31T09:06:42;96354.59;;;22.70;58.21
10992;BME280;5549;47.028;15.514;2023-08-31T09:09:12;96353.38;;;22.80;57.76
10992;BME280;5549;47.028;15.514;2023-08-31T09:11:41;96360.69;;;23.04;55.95
10992;BME280;5549;47.028;15.514;2023-08-31T09:14:15;96364.34;;;23.16;56.27
10992;BME280;5549;47.028;15.514;2023-08-31T09:16:45;96361.88;;;23.21;55.11
10992;BME280;5549;47.028;15.514;2023-08-31T09:19:23;96364.75;;;23.20;54.88
10992;BME280;5549;47.028;15.514;2023-08-31T09:21:56;96362.59;;;23.42;54.68
10992;BME280;5549;47.028;15.514;2023-08-31T09:24:25;96362.94;;;23.52;56.18
10992;BME280;5549;47.028;15.514;2023-08-31T09:26:56;96362.56;;;23.55;58.75
10992;BME280;5549;47.028;15.514;2023-08-31T09:29:27;96368.38;;;23.39;53.55
10992;BME280;5549;47.028;15.514;2023-08-31T09:31:57;96370.69;;;23.73;53.28
10992;BME280;5549;47.028;15.514;2023-08-31T09:34:33;96373.66;;;23.52;54.08
10992;BME280;5549;47.028;15.514;2023-08-31T09:37:08;96374.66;;;23.64;55.55
10992;BME280;5549;47.028;15.514;2023-08-31T09:39:38;96378.44;;;23.88;52.69
10992;BME280;5549;47.028;15.514;2023-08-31T09:42:06;96379.16;;;24.02;56.82
10992;BME280;5549;47.028;15.514;2023-08-31T09:44:34;96373.44;;;24.23;51.74
10992;BME280;5549;47.028;15.514;2023-08-31T09:47:01;96373.38;;;24.36;49.46
10992;BME280;5549;47.028;15.514;2023-08-31T09:49:33;96371.13;;;24.33;49.19
10992;BME280;5549;47.028;15.514;2023-08-31T09:52:04;96376.66;;;24.38;53.47
10992;BME280;5549;47.028;15.514;2023-08-31T09:54:37;96376.50;;;24.76;53.66
10992;BME280;5549;47.028;15.514;2023-08-31T09:57:05;96369.38;;;24.45;54.46
10992;BME280;5549;47.028;15.514;2023-08-31T09:59:33;96371.19;;;24.70;55.30
10992;BME280;5549;47.028;15.514;2023-08-31T10:02:04;96367.91;;;24.68;52.94
10992;BME280;5549;47.028;15.514;2023-08-31T10:04:35;96368.22;;;24.78;52.34
10992;BME280;5549;47.028;15.514;2023-08-31T10:07:04;96359.88;;;24.86;49.21
10992;BME280;5549;47.028;15.514;2023-08-31T10:09:33;96374.34;;;24.67;49.54
10992;BME280;5549;47.028;15.514;2023-08-31T10:12:04;96366.13;;;24.80;48.91
10992;BME280;5549;47.028;15.514;2023-08-31T10:14:34;96362.72;;;24.91;47.69
10992;BME280;5549;47.028;15.514;2023-08-31T10:17:04;96374.47;;;24.72;47.53
10992;BME280;5549;47.028;15.514;2023-08-31T10:19:35;96366.59;;;24.77;46.58
10992;BME280;5549;47.028;15.514;2023-08-31T10:22:06;96374.94;;;24.87;45.46
10992;BME280;5549;47.028;15.514;2023-08-31T10:24:58;96377.97;;;25.15;46.17
10992;BME280;5549;47.028;15.514;2023-08-31T10:27:26;96382.22;;;25.05;49.17
10992;BME280;5549;47.028;15.514;2023-08-31T10:29:54;96384.09;;;25.04;49.61
10992;BME280;5549;47.028;15.514;2023-08-31T10:32:22;96379.66;;;24.91;51.09
10992;BME280;5549;47.028;15.514;2023-08-31T10:35:09;96388.84;;;25.20;51.40
10992;BME280;5549;47.028;15.514;2023-08-31T10:37:40;96385.69;;;25.42;50.03
10992;BME280;5549;47.028;15.514;2023-08-31T10:40:11;96375.41;;;25.39;50.00
10992;BME280;5549;47.028;15.514;2023-08-31T10:42:43;96383.63;;;25.25;45.03
10992;BME280;5549;47.028;15.514;2023-08-31T10:45:11;96385.81;;;24.99;45.24
10992;BME280;5549;47.028;15.514;2023-08-31T10:47:41;96373.97;;;25.36;46.72
10992;BME280;5549;47.028;15.514;2023-08-31T10:50:21;96374.88;;;25.78;47.57
10992;BME280;5549;47.028;15.514;2023-08-31T10:52:49;96368.88;;;25.46;47.58
10992;BME280;5549;47.028;15.514;2023-08-31T10:55:17;96367.72;;;25.24;48.21
10992;BME280;5549;47.028;15.514;2023-08-31T10:57:46;96373.13;;;25.54;49.99
10992;BME280;5549;47.028;15.514;2023-08-31T11:03:21;96365.97;;;25.66;46.49
10992;BME280;5549;47.028;15.514;2023-08-31T11:05:53;96369.22;;;25.98;46.43
10992;BME280;5549;47.028;15.514;2023-08-31T11:08:22;96355.59;;;26.23;44.87
10992;BME280;5549;47.028;15.514;2023-08-31T11:10:51;96356.47;;;26.35;44.06
10992;BME280;5549;47.028;15.514;2023-08-31T11:13:19;96356.59;;;26.64;45.75
10992;BME280;5549;47.028;15.514;2023-08-31T11:15:47;96361.97;;;26.52;43.40
10992;BME280;5549;47.028;15.514;2023-08-31T11:18:21;96362.53;;;26.31;46.78
10992;BME280;5549;47.028;15.514;2023-08-31T11:20:48;96363.59;;;26.00;44.65
10992;BME280;5549;47.028;15.514;2023-08-31T11:23:20;96363.75;;;26.05;43.19
10992;BME280;5549;47.028;15.514;2023-08-31T11:25:48;96358.28;;;25.81;46.05
10992;BME280;5549;47.028;15.514;2023-08-31T11:28:19;96352.31;;;25.79;48.38
10992;BME280;5549;47.028;15.514;2023-08-31T11:30:48;96348.25;;;25.88;44.70
10992;BME280;5549;47.028;15.514;2023-08-31T11:33:17;96346.81;;;25.74;41.69
10992;BME280;5549;47.028;15.514;2023-08-31T11:35:44;96354.75;;;25.51;45.86
10992;BME280;5549;47.028;15.514;2023-08-31T11:38:14;96347.28;;;25.23;44.18
10992;BME280;5549;47.028;15.514;2023-08-31T11:40:46;96352.53;;;25.48;44.05
10992;BME280;5549;47.028;15.514;2023-08-31T11:43:15;96349.56;;;25.98;46.66
10992;BME280;5549;47.028;15.514;2023-08-31T11:45:44;96348.22;;;26.07;46.12
10992;BME280;5549;47.028;15.514;2023-08-31T11:48:12;96356.88;;;26.09;43.03
10992;BME280;5549;47.028;15.514;2023-08-31T11:50:40;96355.38;;;25.83;43.00
10992;BME280;5549;47.028;15.514;2023-08-31T11:53:08;96358.75;;;26.08;40.25
10992;BME280;5549;47.028;15.514;2023-08-31T11:55:51;96364.53;;;26.35;41.53
10992;BME280;5549;47.028;15.514;2023-08-31T11:58:21;96362.72;;;26.17;41.44
10992;BME280;5549;47.028;15.514;2023-08-31T12:00:57;96365.47;;;25.99;42.26
10992;BME280;5549;47.028;15.514;2023-08-31T12:03:27;96362.94;;;26.04;41.11
10992;BME280;5549;47.028;15.514;2023-08-31T12:05:57;96374.56;;;25.86;39.86
10992;BME280;5549;47.028;15.514;2023-08-31T12:08:27;96372.13;;;25.97;40.84
10992;BME280;5549;47.028;15.514;2023-08-31T12:10:56;96373.59;;;26.11;42.78
10992;BME280;5549;47.028;15.514;2023-08-31T12:13:28;96369.28;;;26.21;42.50
10992;BME280;5549;47.028;15.514;2023-08-31T12:15:59;96363.34;;;26.31;42.73
10992;BME280;5549;47.028;15.514;2023-08-31T12:18:30;96377.53;;;25.97;41.29
10992;BME280;5549;47.028;15.514;2023-08-31T12:20:58;96369.69;;;25.95;39.94
10992;BME280;5549;47.028;15.514;2023-08-31T12:23:28;96375.97;;;25.89;40.68
10992;BME280;5549;47.028;15.514;2023-08-31T12:25:57;96376.25;;;25.69;40.70
10992;BME280;5549;47.028;15.514;2023-08-31T12:28:27;96374.88;;;25.78;42.27
10992;BME280;5549;47.028;15.514;2023-08-31T12:30:55;96370.94;;;25.81;41.71
10992;BME280;5549;47.028;15.514;2023-08-31T12:33:26;96363.28;;;25.66;42.11
10992;BME280;5549;47.028;15.514;2023-08-31T12:35:53;96368.38;;;25.86;43.60
10992;BME280;5549;47.028;15.514;2023-08-31T12:38:23;96372.94;;;25.85;42.71
10992;BME280;5549;47.028;15.514;2023-08-31T12:40:52;96366.00;;;25.78;44.93
10992;BME280;5549;47.028;15.514;2023-08-31T12:43:22;96369.59;;;26.02;43.53
10992;BME280;5549;47.028;15.514;2023-08-31T12:45:52;96370.53;;;25.47;43.23
10992;BME280;5549;47.028;15.514;2023-08-31T12:48:19;96377.00;;;25.58;42.44
10992;BME280;5549;47.028;15.514;2023-08-31T12:50:47;96379.13;;;25.38;39.15
10992;BME280;5549;47.028;15.514;2023-08-31T12:53:15;96366.88;;;25.42;39.72
10992;BME280;5549;47.028;15.514;2023-08-31T12:55:45;96373.94;;;25.24;40.87
10992;BME280;5549;47.028;15.514;2023-08-31T12:58:12;96374.22;;;25.35;39.34
10992;BME280;5549;47.028;15.514;2023-08-31T13:00:41;96381.63;;;25.21;39.79
10992;BME280;5549;47.028;15.514;2023-08-31T13:03:11;96382.38;;;25.10;39.10
10992;BME280;5549;47.028;15.514;2023-08-31T13:05:39;96379.66;;;25.28;39.65
10992;BME280;5549;47.028;15.514;2023-08-31T13:08:09;96377.06;;;25.21;40.42
10992;BME280;5549;47.028;15.514;2023-08-31T13:10:39;96376.91;;;25.16;40.59
10992;BME280;5549;47.028;15.514;2023-08-31T13:13:06;96371.69;;;25.03;39.76
10992;BME280;5549;47.028;15.514;2023-08-31T13:15:34;96375.44;;;25.02;41.15